Kyrock, Kentucky
Current Conditions -  °F | °C
As of 5:53 AM on Wednesday 28 Jan 2015 (Local Time) from KBWG Reporting Station
Clear Clear  
Wind Chill: 19°   Ceiling: Unl
Heat Index: 25°   Visibility: 10mi
Dew Point: 16°   Wind: 5mph
Humidity: 69%   Direction: 80°E
Pressure: 30.33"   Gusts: NA
Location:  37.2612°N, 86.3064°W
Report Text: KBWG 281153Z AUTO 08004KT 10SM CLR M04/M09 A3033 RMK AO2 SLP276 T10391089 10006 21039 51017
Loading
Personal Weather Stations






























Interactive Weather Map New forecast layout! Learn more

10-Day Weather Forecast

Advertisements
Track Severe Weather on mobile